sensor_id;sensor_type;location;lat;lon;timestamp;pressure;altitude;pressure_sealevel;temperature;humidity
61205;BME280;47068;55.780;37.520;2023-05-08T00:00:34;101352.97;;;3.88;52.64
61205;BME280;47068;55.780;37.520;2023-05-08T00:02:59;101331.50;;;3.80;52.69
61205;BME280;47068;55.780;37.520;2023-05-08T00:05:25;101351.59;;;3.81;52.72
61205;BME280;47068;55.780;37.520;2023-05-08T00:07:50;101354.84;;;3.86;52.68
61205;BME280;47068;55.780;37.520;2023-05-08T00:10:17;101366.38;;;3.83;52.98
61205;BME280;47068;55.780;37.520;2023-05-08T00:12:43;101365.84;;;3.77;53.37
61205;BME280;47068;55.780;37.520;2023-05-08T00:15:08;101368.63;;;3.74;53.23
61205;BME280;47068;55.780;37.520;2023-05-08T00:17:34;101369.59;;;3.73;53.37
61205;BME280;47068;55.780;37.520;2023-05-08T00:20:00;101371.28;;;3.74;53.36
61205;BME280;47068;55.780;37.520;2023-05-08T00:22:26;101371.19;;;3.75;53.37
61205;BME280;47068;55.780;37.520;2023-05-08T00:24:51;101369.41;;;3.76;53.32
61205;BME280;47068;55.780;37.520;2023-05-08T00:27:17;101376.53;;;3.74;53.56
61205;BME280;47068;55.780;37.520;2023-05-08T00:29:42;101377.50;;;3.73;53.64
61205;BME280;47068;55.780;37.520;2023-05-08T00:32:08;101373.53;;;3.64;53.40
61205;BME280;47068;55.780;37.520;2023-05-08T00:34:34;101376.00;;;3.67;53.54
61205;BME280;47068;55.780;37.520;2023-05-08T00:37:00;101359.31;;;3.51;54.19
61205;BME280;47068;55.780;37.520;2023-05-08T00:39:26;101379.19;;;3.56;55.06
61205;BME280;47068;55.780;37.520;2023-05-08T00:41:52;101377.50;;;3.55;54.43
61205;BME280;47068;55.780;37.520;2023-05-08T00:44:17;101379.34;;;3.53;54.46
61205;BME280;47068;55.780;37.520;2023-05-08T00:46:43;101377.50;;;3.55;54.45
61205;BME280;47068;55.780;37.520;2023-05-08T00:49:10;101360.50;;;3.45;54.53
61205;BME280;47068;55.780;37.520;2023-05-08T00:51:46;101371.47;;;3.36;54.95
61205;BME280;47068;55.780;37.520;2023-05-08T00:54:12;101387.88;;;3.41;55.13
61205;BME280;47068;55.780;37.520;2023-05-08T00:56:38;101388.66;;;3.43;55.17
61205;BME280;47068;55.780;37.520;2023-05-08T00:59:06;101392.13;;;3.44;55.54
61205;BME280;47068;55.780;37.520;2023-05-08T01:01:37;101393.91;;;3.43;55.04
61205;BME280;47068;55.780;37.520;2023-05-08T01:04:05;101374.41;;;3.30;55.78
61205;BME280;47068;55.780;37.520;2023-05-08T01:06:31;101389.88;;;3.36;55.84
61205;BME280;47068;55.780;37.520;2023-05-08T01:08:56;101325.16;;;2.98;56.01
61205;BME280;47068;55.780;37.520;2023-05-08T01:11:29;101386.25;;;3.39;56.02
61205;BME280;47068;55.780;37.520;2023-05-08T01:17:09;101387.06;;;3.39;55.55
61205;BME280;47068;55.780;37.520;2023-05-08T01:19:54;101371.59;;;3.33;56.08
61205;BME280;47068;55.780;37.520;2023-05-08T01:34:12;101397.00;;;3.51;55.54
61205;BME280;47068;55.780;37.520;2023-05-08T01:36:48;101405.34;;;3.60;55.61
61205;BME280;47068;55.780;37.520;2023-05-08T01:39:19;101394.81;;;3.60;55.69
61205;BME280;47068;55.780;37.520;2023-05-08T01:41:52;101395.13;;;3.53;55.74
61205;BME280;47068;55.780;37.520;2023-05-08T01:44:23;101398.09;;;3.65;55.48
61205;BME280;47068;55.780;37.520;2023-05-08T01:46:52;101401.19;;;3.73;55.15
61205;BME280;47068;55.780;37.520;2023-05-08T01:49:25;101378.88;;;3.63;55.19
61205;BME280;47068;55.780;37.520;2023-05-08T01:52:09;101409.69;;;3.78;55.02
61205;BME280;47068;55.780;37.520;2023-05-08T01:54:45;101417.50;;;3.79;54.94
61205;BME280;47068;55.780;37.520;2023-05-08T01:57:12;101404.25;;;3.81;54.78
61205;BME280;47068;55.780;37.520;2023-05-08T01:59:40;101410.75;;;3.74;54.83
61205;BME280;47068;55.780;37.520;2023-05-08T02:02:08;101402.25;;;3.69;54.89
61205;BME280;47068;55.780;37.520;2023-05-08T02:04:34;101423.84;;;3.75;54.83
61205;BME280;47068;55.780;37.520;2023-05-08T02:07:00;101404.09;;;3.67;54.85
61205;BME280;47068;55.780;37.520;2023-05-08T02:09:27;101421.75;;;3.82;54.50
61205;BME280;47068;55.780;37.520;2023-05-08T02:11:54;101419.75;;;3.87;54.64
61205;BME280;47068;55.780;37.520;2023-05-08T02:14:21;101396.53;;;3.78;54.49
61205;BME280;47068;55.780;37.520;2023-05-08T02:16:48;101424.69;;;3.93;54.24
61205;BME280;47068;55.780;37.520;2023-05-08T02:19:15;101403.81;;;3.73;54.57
61205;BME280;47068;55.780;37.520;2023-05-08T02:21:41;101436.31;;;3.89;54.79
61205;BME280;47068;55.780;37.520;2023-05-08T02:24:08;101425.94;;;3.86;54.56
61205;BME280;47068;55.780;37.520;2023-05-08T02:26:35;101433.00;;;3.85;54.75
61205;BME280;47068;55.780;37.520;2023-05-08T02:29:02;101438.88;;;3.90;54.47
61205;BME280;47068;55.780;37.520;2023-05-08T02:31:28;101437.88;;;3.93;54.97
61205;BME280;47068;55.780;37.520;2023-05-08T02:33:54;101432.59;;;3.93;55.01
61205;BME280;47068;55.780;37.520;2023-05-08T02:36:21;101448.41;;;3.93;55.14
61205;BME280;47068;55.780;37.520;2023-05-08T02:38:50;101445.59;;;3.96;54.85
61205;BME280;47068;55.780;37.520;2023-05-08T02:41:19;101435.13;;;3.94;54.86
61205;BME280;47068;55.780;37.520;2023-05-08T02:43:47;101449.78;;;4.00;55.01
61205;BME280;47068;55.780;37.520;2023-05-08T02:46:24;101453.28;;;4.01;54.90
61205;BME280;47068;55.780;37.520;2023-05-08T02:49:02;101459.28;;;4.03;55.14
61205;BME280;47068;55.780;37.520;2023-05-08T02:51:49;101457.50;;;4.03;55.11
61205;BME280;47068;55.780;37.520;2023-05-08T02:54:24;101465.59;;;4.00;55.65
61205;BME280;47068;55.780;37.520;2023-05-08T02:56:59;101456.72;;;4.01;55.81
61205;BME280;47068;55.780;37.520;2023-05-08T02:59:38;101464.16;;;4.10;55.83
61205;BME280;47068;55.780;37.520;2023-05-08T03:02:16;101470.03;;;4.15;55.46
61205;BME280;47068;55.780;37.520;2023-05-08T03:04:58;101463.69;;;4.19;55.31
61205;BME280;47068;55.780;37.520;2023-05-08T03:07:28;101475.63;;;4.26;55.40
61205;BME280;47068;55.780;37.520;2023-05-08T03:10:01;101475.44;;;4.29;55.53
61205;BME280;47068;55.780;37.520;2023-05-08T03:12:31;101470.03;;;4.32;55.32
61205;BME280;47068;55.780;37.520;2023-05-08T03:15:05;101475.75;;;4.41;55.13
61205;BME280;47068;55.780;37.520;2023-05-08T03:17:32;101479.75;;;4.48;55.11
61205;BME280;47068;55.780;37.520;2023-05-08T03:20:04;101473.56;;;4.49;55.04
61205;BME280;47068;55.780;37.520;2023-05-08T03:22:34;101477.31;;;4.60;55.15
61205;BME280;47068;55.780;37.520;2023-05-08T03:25:02;101468.41;;;4.63;55.49
61205;BME280;47068;55.780;37.520;2023-05-08T03:27:29;101476.41;;;4.77;55.50
61205;BME280;47068;55.780;37.520;2023-05-08T03:29:56;101484.75;;;4.85;54.96
61205;BME280;47068;55.780;37.520;2023-05-08T03:32:26;101450.19;;;4.74;55.07
61205;BME280;47068;55.780;37.520;2023-05-08T03:34:54;101468.25;;;4.97;55.05
61205;BME280;47068;55.780;37.520;2023-05-08T03:37:23;101365.66;;;4.46;54.93
61205;BME280;47068;55.780;37.520;2023-05-08T03:39:50;101483.47;;;5.24;54.84
61205;BME280;47068;55.780;37.520;2023-05-08T03:42:16;101483.78;;;5.33;54.36
61205;BME280;47068;55.780;37.520;2023-05-08T03:44:52;101493.75;;;5.44;53.80
61205;BME280;47068;55.780;37.520;2023-05-08T03:47:21;101493.81;;;5.58;53.39
61205;BME280;47068;55.780;37.520;2023-05-08T03:49:50;101491.03;;;5.75;52.84
61205;BME280;47068;55.780;37.520;2023-05-08T03:52:16;101462.44;;;5.68;52.11
61205;BME280;47068;55.780;37.520;2023-05-08T03:54:41;101498.22;;;6.03;51.61
61205;BME280;47068;55.780;37.520;2023-05-08T03:57:07;101493.28;;;6.27;50.68
61205;BME280;47068;55.780;37.520;2023-05-08T04:02:28;101478.47;;;6.39;50.12
61205;BME280;47068;55.780;37.520;2023-05-08T04:05:04;101494.25;;;6.54;49.28
61205;BME280;47068;55.780;37.520;2023-05-08T04:07:38;101492.63;;;6.66;48.99
61205;BME280;47068;55.780;37.520;2023-05-08T04:10:23;101488.72;;;6.86;48.91
61205;BME280;47068;55.780;37.520;2023-05-08T04:15:21;101487.34;;;7.21;47.72
61205;BME280;47068;55.780;37.520;2023-05-08T04:18:08;101476.03;;;7.46;47.36
61205;BME280;47068;55.780;37.520;2023-05-08T04:20:38;101491.13;;;7.71;46.60
61205;BME280;47068;55.780;37.520;2023-05-08T04:23:05;101490.91;;;8.13;45.25
61205;BME280;47068;55.780;37.520;2023-05-08T04:25:32;101488.59;;;8.59;45.35
61205;BME280;47068;55.780;37.520;2023-05-08T04:28:00;101485.22;;;8.70;44.13
61205;BME280;47068;55.780;37.520;2023-05-08T04:30:27;101494.31;;;8.66;44.01
61205;BME280;47068;55.780;37.520;2023-05-08T04:32:53;101489.66;;;8.69;43.27
61205;BME280;47068;55.780;37.520;2023-05-08T04:35:19;101486.13;;;8.82;42.60
61205;BME280;47068;55.780;37.520;2023-05-08T04:37:45;101472.91;;;9.05;42.47
61205;BME280;47068;55.780;37.520;2023-05-08T04:40:11;101492.41;;;9.54;41.75
61205;BME280;47068;55.780;37.520;2023-05-08T04:42:36;101488.22;;;10.43;40.45
61205;BME280;47068;55.780;37.520;2023-05-08T04:45:04;101473.44;;;10.95;39.25
61205;BME280;47068;55.780;37.520;2023-05-08T04:47:30;101461.00;;;11.27;38.21
61205;BME280;47068;55.780;37.520;2023-05-08T04:49:55;101482.16;;;11.83;36.82
61205;BME280;47068;55.780;37.520;2023-05-08T04:52:21;101480.28;;;11.74;37.12
61205;BME280;47068;55.780;37.520;2023-05-08T04:54:46;101485.09;;;11.69;37.02
61205;BME280;47068;55.780;37.520;2023-05-08T04:57:12;101480.16;;;11.75;36.80
61205;BME280;47068;55.780;37.520;2023-05-08T04:59:38;101457.31;;;12.03;35.87
61205;BME280;47068;55.780;37.520;2023-05-08T05:02:04;101474.44;;;13.13;34.60
61205;BME280;47068;55.780;37.520;2023-05-08T05:04:32;101482.09;;;13.85;33.30
61205;BME280;47068;55.780;37.520;2023-05-08T05:06:58;101477.34;;;14.91;31.48
61205;BME280;47068;55.780;37.520;2023-05-08T05:09:23;101478.56;;;16.30;29.64
61205;BME280;47068;55.780;37.520;2023-05-08T05:11:50;101481.31;;;16.64;29.03
61205;BME280;47068;55.780;37.520;2023-05-08T05:14:15;101479.03;;;16.77;28.59
61205;BME280;47068;55.780;37.520;2023-05-08T05:16:41;101468.56;;;17.83;27.10
61205;BME280;47068;55.780;37.520;2023-05-08T05:19:06;101468.44;;;18.80;24.77
61205;BME280;47068;55.780;37.520;2023-05-08T05:21:32;101487.50;;;19.71;24.46
61205;BME280;47068;55.780;37.520;2023-05-08T05:23:57;101469.84;;;20.58;23.37
61205;BME280;47068;55.780;37.520;2023-05-08T05:26:23;101481.19;;;21.27;20.72
61205;BME280;47068;55.780;37.520;2023-05-08T05:28:48;101479.25;;;20.77;19.77
61205;BME280;47068;55.780;37.520;2023-05-08T05:31:14;101481.19;;;20.01;21.66
61205;BME280;47068;55.780;37.520;2023-05-08T05:33:39;101485.69;;;20.61;20.64
61205;BME280;47068;55.780;37.520;2023-05-08T05:36:05;101479.06;;;21.08;20.87
61205;BME280;47068;55.780;37.520;2023-05-08T05:38:32;101479.97;;;21.51;20.06
61205;BME280;47068;55.780;37.520;2023-05-08T05:40:57;101485.22;;;21.74;19.13
61205;BME280;47068;55.780;37.520;2023-05-08T05:43:22;101478.59;;;21.19;19.01
61205;BME280;47068;55.780;37.520;2023-05-08T05:45:48;101475.25;;;20.43;19.11
61205;BME280;47068;55.780;37.520;2023-05-08T05:48:13;101488.06;;;19.89;20.47
61205;BME280;47068;55.780;37.520;2023-05-08T05:50:39;101471.56;;;19.84;20.68
61205;BME280;47068;55.780;37.520;2023-05-08T05:53:04;101472.06;;;19.57;20.36
61205;BME280;47068;55.780;37.520;2023-05-08T05:55:30;101481.19;;;18.94;21.60
61205;BME280;47068;55.780;37.520;2023-05-08T05:57:56;101484.66;;;18.39;21.91
61205;BME280;47068;55.780;37.520;2023-05-08T06:00:21;101489.25;;;18.15;22.27
61205;BME280;47068;55.780;37.520;2023-05-08T06:02:47;101472.91;;;18.24;22.12
61205;BME280;47068;55.780;37.520;2023-05-08T06:05:13;101469.72;;;18.29;22.15
61205;BME280;47068;55.780;37.520;2023-05-08T06:07:39;101480.81;;;18.97;20.91
61205;BME280;47068;55.780;37.520;2023-05-08T06:10:05;101478.88;;;19.45;20.18
61205;BME280;47068;55.780;37.520;2023-05-08T06:12:31;101481.31;;;20.46;19.16
61205;BME280;47068;55.780;37.520;2023-05-08T06:14:57;101478.78;;;21.75;18.77
61205;BME280;47068;55.780;37.520;2023-05-08T06:17:22;101467.63;;;23.50;17.26
61205;BME280;47068;55.780;37.520;2023-05-08T06:19:48;101476.56;;;25.40;14.92
61205;BME280;47068;55.780;37.520;2023-05-08T06:22:19;101474.75;;;28.44;13.47
61205;BME280;47068;55.780;37.520;2023-05-08T06:24:49;101453.47;;;31.10;11.02
61205;BME280;47068;55.780;37.520;2023-05-08T06:27:18;101473.47;;;33.07;10.27
61205;BME280;47068;55.780;37.520;2023-05-08T06:29:44;101464.00;;;34.41;9.50
61205;BME280;47068;55.780;37.520;2023-05-08T06:32:10;101464.47;;;35.77;8.26
61205;BME280;47068;55.780;37.520;2023-05-08T06:34:35;101469.38;;;37.38;7.37
61205;BME280;47068;55.780;37.520;2023-05-08T06:37:01;101467.03;;;38.15;6.73
61205;BME280;47068;55.780;37.520;2023-05-08T06:39:26;101451.81;;;37.61;6.44
61205;BME280;47068;55.780;37.520;2023-05-08T06:41:52;101456.50;;;37.79;5.99
61205;BME280;47068;55.780;37.520;2023-05-08T06:44:20;101454.56;;;37.80;6.00
61205;BME280;47068;55.780;37.520;2023-05-08T06:46:45;101454.28;;;37.63;6.59
61205;BME280;47068;55.780;37.520;2023-05-08T06:49:11;101446.47;;;39.12;5.81
61205;BME280;47068;55.780;37.520;2023-05-08T06:51:36;101451.34;;;40.40;5.38
61205;BME280;47068;55.780;37.520;2023-05-08T06:54:03;101439.47;;;40.26;5.19
61205;BME280;47068;55.780;37.520;2023-05-08T06:56:33;101447.31;;;39.93;5.03
61205;BME280;47068;55.780;37.520;2023-05-08T06:58:59;101439.44;;;35.04;6.94
61205;BME280;47068;55.780;37.520;2023-05-08T07:01:25;101439.59;;;33.11;8.08
61205;BME280;47068;55.780;37.520;2023-05-08T07:03:50;101435.75;;;34.54;6.78
61205;BME280;47068;55.780;37.520;2023-05-08T07:06:15;101441.63;;;33.56;7.61
61205;BME280;47068;55.780;37.520;2023-05-08T07:08:41;101447.41;;;34.41;6.95
61205;BME280;47068;55.780;37.520;2023-05-08T07:11:06;101440.56;;;32.75;7.61
61205;BME280;47068;55.780;37.520;2023-05-08T07:13:34;101426.84;;;31.69;8.20
61205;BME280;47068;55.780;37.520;2023-05-08T07:16:00;101441.47;;;32.96;8.21
61205;BME280;47068;55.780;37.520;2023-05-08T07:18:25;101440.78;;;28.10;10.30
61205;BME280;47068;55.780;37.520;2023-05-08T07:20:51;101431.69;;;23.74;13.07
61205;BME280;47068;55.780;37.520;2023-05-08T07:23:16;101436.09;;;27.34;11.91
61205;BME280;47068;55.780;37.520;2023-05-08T07:25:42;101415.09;;;26.68;11.32
61205;BME280;47068;55.780;37.520;2023-05-08T07:28:07;101422.56;;;30.04;10.04
61205;BME280;47068;55.780;37.520;2023-05-08T07:30:33;101429.03;;;35.35;7.47
61205;BME280;47068;55.780;37.520;2023-05-08T07:32:59;101427.72;;;39.40;5.85
61205;BME280;47068;55.780;37.520;2023-05-08T07:35:24;101425.97;;;41.41;4.31
61205;BME280;47068;55.780;37.520;2023-05-08T07:37:50;101426.44;;;36.69;6.01
61205;BME280;47068;55.780;37.520;2023-05-08T07:40:16;101423.34;;;30.76;8.51
61205;BME280;47068;55.780;37.520;2023-05-08T07:42:42;101428.94;;;30.26;9.14
61205;BME280;47068;55.780;37.520;2023-05-08T07:45:09;101422.94;;;32.81;7.84
61205;BME280;47068;55.780;37.520;2023-05-08T07:47:34;101423.41;;;34.11;6.77
61205;BME280;47068;55.780;37.520;2023-05-08T07:50:00;101413.75;;;33.83;7.28
61205;BME280;47068;55.780;37.520;2023-05-08T07:52:26;101413.03;;;34.78;6.64
61205;BME280;47068;55.780;37.520;2023-05-08T07:54:51;101406.38;;;34.78;6.88
61205;BME280;47068;55.780;37.520;2023-05-08T07:57:17;101402.91;;;34.43;7.01
61205;BME280;47068;55.780;37.520;2023-05-08T07:59:42;101408.06;;;34.69;6.92
61205;BME280;47068;55.780;37.520;2023-05-08T08:02:08;101411.56;;;31.83;7.85
61205;BME280;47068;55.780;37.520;2023-05-08T08:04:33;101415.38;;;26.78;10.14
61205;BME280;47068;55.780;37.520;2023-05-08T08:06:59;101408.72;;;26.92;11.07
61205;BME280;47068;55.780;37.520;2023-05-08T08:09:24;101414.31;;;26.97;11.06
61205;BME280;47068;55.780;37.520;2023-05-08T08:11:50;101414.16;;;24.94;11.85
61205;BME280;47068;55.780;37.520;2023-05-08T08:14:15;101419.97;;;23.67;12.91
61205;BME280;47068;55.780;37.520;2023-05-08T08:16:41;101416.88;;;21.29;14.80
61205;BME280;47068;55.780;37.520;2023-05-08T08:19:07;101412.03;;;19.55;16.01
61205;BME280;47068;55.780;37.520;2023-05-08T08:21:33;101398.38;;;18.64;16.45
61205;BME280;47068;55.780;37.520;2023-05-08T08:24:01;101419.88;;;17.52;17.60
61205;BME280;47068;55.780;37.520;2023-05-08T08:26:26;101400.75;;;15.69;19.34
61205;BME280;47068;55.780;37.520;2023-05-08T08:28:52;101411.34;;;15.08;20.20
61205;BME280;47068;55.780;37.520;2023-05-08T08:31:17;101416.41;;;15.28;20.07
61205;BME280;47068;55.780;37.520;2023-05-08T08:33:44;101421.44;;;15.41;20.57
61205;BME280;47068;55.780;37.520;2023-05-08T08:36:14;101411.44;;;15.51;21.15
61205;BME280;47068;55.780;37.520;2023-05-08T08:38:40;101419.91;;;15.74;21.56
61205;BME280;47068;55.780;37.520;2023-05-08T08:41:06;101425.75;;;15.69;21.76
61205;BME280;47068;55.780;37.520;2023-05-08T08:43:33;101426.63;;;15.43;22.58
61205;BME280;47068;55.780;37.520;2023-05-08T08:46:02;101420.78;;;15.12;22.66
61205;BME280;47068;55.780;37.520;2023-05-08T08:48:36;101409.03;;;14.40;22.49
61205;BME280;47068;55.780;37.520;2023-05-08T08:51:05;101422.66;;;13.91;23.10
61205;BME280;47068;55.780;37.520;2023-05-08T08:53:42;101420.16;;;13.79;23.80
61205;BME280;47068;55.780;37.520;2023-05-08T08:56:10;101403.56;;;13.66;24.90
61205;BME280;47068;55.780;37.520;2023-05-08T08:59:02;101421.28;;;13.58;24.75
61205;BME280;47068;55.780;37.520;2023-05-08T09:01:29;101420.59;;;13.46;25.49
61205;BME280;47068;55.780;37.520;2023-05-08T09:03:58;101408.06;;;13.27;25.04
61205;BME280;47068;55.780;37.520;2023-05-08T09:06:27;101428.06;;;13.33;24.53
61205;BME280;47068;55.780;37.520;2023-05-08T09:08:56;101422.25;;;13.28;24.17
61205;BME280;47068;55.780;37.520;2023-05-08T09:11:23;101421.56;;;13.26;24.28
61205;BME280;47068;55.780;37.520;2023-05-08T09:13:48;101428.63;;;13.27;23.78
61205;BME280;47068;55.780;37.520;2023-05-08T09:16:17;101427.47;;;13.29;24.58
61205;BME280;47068;55.780;37.520;2023-05-08T09:18:42;101431.84;;;13.40;24.34
61205;BME280;47068;55.780;37.520;2023-05-08T09:21:08;101413.97;;;13.31;24.49
61205;BME280;47068;55.780;37.520;2023-05-08T09:23:35;101431.16;;;13.57;23.96
61205;BME280;47068;55.780;37.520;2023-05-08T09:26:03;101415.66;;;13.70;23.94
61205;BME280;47068;55.780;37.520;2023-05-08T09:28:29;101412.97;;;13.70;24.01
61205;BME280;47068;55.780;37.520;2023-05-08T09:30:58;101404.94;;;13.70;24.36
61205;BME280;47068;55.780;37.520;2023-05-08T09:33:26;101413.38;;;13.85;24.11
61205;BME280;47068;55.780;37.520;2023-05-08T09:35:53;101411.16;;;13.71;24.79
61205;BME280;47068;55.780;37.520;2023-05-08T09:38:45;101425.78;;;13.57;23.16
61205;BME280;47068;55.780;37.520;2023-05-08T09:41:12;101404.41;;;13.28;24.14
61205;BME280;47068;55.780;37.520;2023-05-08T09:43:42;101424.81;;;13.39;25.05
61205;BME280;47068;55.780;37.520;2023-05-08T09:46:25;101420.03;;;13.33;25.08
61205;BME280;47068;55.780;37.520;2023-05-08T09:48:53;101411.44;;;13.20;24.36
61205;BME280;47068;55.780;37.520;2023-05-08T09:51:20;101426.63;;;13.19;24.52
61205;BME280;47068;55.780;37.520;2023-05-08T09:53:45;101416.78;;;13.20;25.88
61205;BME280;47068;55.780;37.520;2023-05-08T09:56:11;101421.00;;;13.13;25.26
61205;BME280;47068;55.780;37.520;2023-05-08T09:58:42;101426.34;;;13.13;24.45
61205;BME280;47068;55.780;37.520;2023-05-08T10:01:27;101383.75;;;12.81;24.62
61205;BME280;47068;55.780;37.520;2023-05-08T10:03:53;101420.66;;;12.96;24.61
61205;BME280;47068;55.780;37.520;2023-05-08T10:06:18;101403.75;;;12.96;24.83
61205;BME280;47068;55.780;37.520;2023-05-08T10:08:45;101413.22;;;13.10;23.27
61205;BME280;47068;55.780;37.520;2023-05-08T10:11:17;101419.53;;;12.99;23.57
61205;BME280;47068;55.780;37.520;2023-05-08T10:13:44;101419.66;;;13.07;24.08
61205;BME280;47068;55.780;37.520;2023-05-08T10:16:14;101411.88;;;13.25;24.58
61205;BME280;47068;55.780;37.520;2023-05-08T10:18:48;101419.75;;;13.46;23.64
61205;BME280;47068;55.780;37.520;2023-05-08T10:21:15;101415.66;;;13.51;23.91
61205;BME280;47068;55.780;37.520;2023-05-08T10:23:41;101404.41;;;13.67;23.58
61205;BME280;47068;55.780;37.520;2023-05-08T10:26:20;101402.13;;;13.82;22.66
61205;BME280;47068;55.780;37.520;2023-05-08T10:28:54;101408.31;;;13.92;22.72
61205;BME280;47068;55.780;37.520;2023-05-08T10:31:24;101403.06;;;14.09;22.29
61205;BME280;47068;55.780;37.520;2023-05-08T10:33:54;101406.97;;;14.15;22.22
61205;BME280;47068;55.780;37.520;2023-05-08T10:36:22;101403.47;;;14.14;22.12
61205;BME280;47068;55.780;37.520;2023-05-08T10:38:48;101396.69;;;14.20;21.71
61205;BME280;47068;55.780;37.520;2023-05-08T10:41:14;101393.41;;;14.26;21.94
61205;BME280;47068;55.780;37.520;2023-05-08T10:43:41;101396.22;;;14.34;22.53
61205;BME280;47068;55.780;37.520;2023-05-08T10:46:16;101390.41;;;14.48;22.46
61205;BME280;47068;55.780;37.520;2023-05-08T10:51:50;101386.25;;;14.64;22.48
61205;BME280;47068;55.780;37.520;2023-05-08T10:54:22;101386.34;;;14.72;21.64
61205;BME280;47068;55.780;37.520;2023-05-08T10:56:50;101390.13;;;14.79;21.35
61205;BME280;47068;55.780;37.520;2023-05-08T10:59:17;101377.56;;;14.79;21.39
61205;BME280;47068;55.780;37.520;2023-05-08T11:01:47;101367.97;;;14.77;20.48
61205;BME280;47068;55.780;37.520;2023-05-08T11:04:21;101356.91;;;14.62;22.25
61205;BME280;47068;55.780;37.520;2023-05-08T11:06:48;101367.50;;;14.81;21.56
61205;BME280;47068;55.780;37.520;2023-05-08T11:09:44;101372.16;;;15.07;22.19
61205;BME280;47068;55.780;37.520;2023-05-08T11:12:25;101368.03;;;15.12;21.20
61205;BME280;47068;55.780;37.520;2023-05-08T11:15:08;101357.97;;;14.79;21.58
61205;BME280;47068;55.780;37.520;2023-05-08T11:17:34;101352.75;;;14.77;21.30
61205;BME280;47068;55.780;37.520;2023-05-08T11:20:03;101361.72;;;14.86;21.99
61205;BME280;47068;55.780;37.520;2023-05-08T11:22:34;101341.88;;;14.79;21.71
61205;BME280;47068;55.780;37.520;2023-05-08T11:25:19;101354.72;;;14.75;22.38
61205;BME280;47068;55.780;37.520;2023-05-08T11:35:57;101360.31;;;13.03;24.44
61205;BME280;47068;55.780;37.520;2023-05-08T11:38:34;101364.09;;;13.01;24.46
61205;BME280;47068;55.780;37.520;2023-05-08T11:41:02;101303.09;;;12.77;24.47
61205;BME280;47068;55.780;37.520;2023-05-08T11:46:05;101366.94;;;12.99;23.76
61205;BME280;47068;55.780;37.520;2023-05-08T11:48:33;101374.53;;;13.04;24.04
61205;BME280;47068;55.780;37.520;2023-05-08T11:51:00;101370.03;;;13.05;23.64
61205;BME280;47068;55.780;37.520;2023-05-08T11:53:27;101375.34;;;12.85;24.89
61205;BME280;47068;55.780;37.520;2023-05-08T11:55:53;101374.47;;;12.75;24.96
61205;BME280;47068;55.780;37.520;2023-05-08T11:58:19;101374.47;;;12.75;24.55
61205;BME280;47068;55.780;37.520;2023-05-08T12:00:45;101373.50;;;12.76;24.72
61205;BME280;47068;55.780;37.520;2023-05-08T12:03:13;101365.50;;;12.76;25.44
61205;BME280;47068;55.780;37.520;2023-05-08T12:05:39;101372.78;;;12.65;24.51
61205;BME280;47068;55.780;37.520;2023-05-08T12:08:05;101281.53;;;12.00;25.03
61205;BME280;47068;55.780;37.520;2023-05-08T12:10:31;101377.69;;;12.69;25.38
61205;BME280;47068;55.780;37.520;2023-05-08T12:12:57;101373.09;;;12.90;24.80
61205;BME280;47068;55.780;37.520;2023-05-08T12:15:22;101376.34;;;13.03;24.99
61205;BME280;47068;55.780;37.520;2023-05-08T12:17:48;101371.72;;;13.06;25.29
61205;BME280;47068;55.780;37.520;2023-05-08T12:20:16;101352.44;;;12.92;24.95
61205;BME280;47068;55.780;37.520;2023-05-08T12:22:52;101347.81;;;13.04;25.59
61205;BME280;47068;55.780;37.520;2023-05-08T12:25:18;101160.78;;;11.98;25.81
61205;BME280;47068;55.780;37.520;2023-05-08T12:27:44;101368.03;;;12.87;24.92
61205;BME280;47068;55.780;37.520;2023-05-08T12:30:12;101342.97;;;12.69;24.87
61205;BME280;47068;55.780;37.520;2023-05-08T12:32:42;101351.16;;;12.87;24.71
61205;BME280;47068;55.780;37.520;2023-05-08T12:35:09;101357.91;;;13.00;24.99
61205;BME280;47068;55.780;37.520;2023-05-08T12:37:36;101362.72;;;13.07;25.18
61205;BME280;47068;55.780;37.520;2023-05-08T12:40:02;101318.84;;;12.99;25.39
61205;BME280;47068;55.780;37.520;2023-05-08T12:43:03;101356.28;;;13.28;25.08
61205;BME280;47068;55.780;37.520;2023-05-08T12:45:34;101351.47;;;13.41;25.17
61205;BME280;47068;55.780;37.520;2023-05-08T12:48:02;101350.78;;;13.49;24.64
61205;BME280;47068;55.780;37.520;2023-05-08T12:50:36;101348.69;;;13.53;24.58
61205;BME280;47068;55.780;37.520;2023-05-08T12:53:07;101342.22;;;13.55;24.53
61205;BME280;47068;55.780;37.520;2023-05-08T12:55:35;101327.56;;;13.50;25.54
61205;BME280;47068;55.780;37.520;2023-05-08T12:58:07;101345.25;;;13.70;25.68
61205;BME280;47068;55.780;37.520;2023-05-08T13:00:39;101347.78;;;13.71;25.22
61205;BME280;47068;55.780;37.520;2023-05-08T13:03:06;101344.72;;;13.66;25.57
61205;BME280;47068;55.780;37.520;2023-05-08T13:05:33;101342.44;;;13.71;25.30
61205;BME280;47068;55.780;37.520;2023-05-08T13:08:01;101341.31;;;13.74;26.04
61205;BME280;47068;55.780;37.520;2023-05-08T13:13:16;101330.38;;;13.58;24.99
61205;BME280;47068;55.780;37.520;2023-05-08T13:15:43;101341.06;;;13.58;25.55
61205;BME280;47068;55.780;37.520;2023-05-08T13:18:09;101329.38;;;13.49;24.92
61205;BME280;47068;55.780;37.520;2023-05-08T13:20:35;101319.69;;;13.48;24.60
61205;BME280;47068;55.780;37.520;2023-05-08T13:23:01;101329.09;;;13.52;24.16
61205;BME280;47068;55.780;37.520;2023-05-08T13:25:27;101324.63;;;13.43;24.30
61205;BME280;47068;55.780;37.520;2023-05-08T13:27:52;101314.34;;;13.48;23.80